中部国際空港

2022/12/18

宮古島紀行 那覇空港・中部国際空港 2022/12/12 moni

地域クーポンのおかげで、たっぷりお肉を頂いて、元気ハツラツ沖縄の朝。

こんな時にカメラが不調なんて・・ 清志郎やわ

20221212_0roah_00kenchomae

那覇モノレールのアドも新しいのが出ています。

20221212_0roah_01kenchomae

ホームは、3両化の工事が行われています。

ROAH 112230Z 05013KT 9999 FEW030 BKN045 19/14 Q1015 RMK 1CU030 5SC045 A2999

20221212_0roah_02idep

国際線デッキで眺めようと思ったら、開いてないの・・

20221212_0roah_03ddep

仕方がないので、国内ビルへ

ROAH 112300Z 05013KT 9999 FEW045 20/13 Q1015 RMK 1SC045 A2998

20221212_0roah_04ja743a

ANA460 ROAH-RJTT JA743A B777-281ER

20221212_0roah_05nhc

青空が出ていますが、前島は霞んでいます。

20221212_0roah_06ja84rc

RAC551 ROAH-ROMY JA84RC DHC8-402QCC

20221212_0roah_07ja09fj

JA09FJ フジドのゴールドさんがいました。前日高知から来た模様。

20221212_0roah_08m5036

5036 P-3C VP-5 T36

20221212_0roah_09ja73nq

SKY549 RJGG-ROAH JA73NQ B737-81D

20221212_0roah_10e343452

34-3452 E-2C

ROAH 112330Z 06014KT 9999 FEW045 20/13 Q1015 RMK 1SC045 A2997

20221212_0roah_11b50005

TIW230 RCTP-ROAH B-50005 A320-232

20221212_0roah_12ja807x

SNJ41 ROAH-ROIG JA807X B737-81D

20221212_0roah_13ja01qq

MROにトキエア JA01QQ ATR 72-212A 11末に入っているのね。直行で行けるのか。

20221212_0roah_14ja720a

JA720A DHC8-315 JCG

20221212_0roah_15ja77an

ANA1762 ROIG-ROAH JA72AN B737-881

20221212_0roah_16u123033

12-3033 U-680A FCS T33  きゃーブレぶれ エアフェスタのお帰り

20221212_0roah_17ja77an

JA77AN 新タワーがいい位置で眺められます。

20221212_0roah_18ja901p

APJ211 RJBB-ROAH JA901P A321-251NX

ROAH 120000Z 06012KT 9999 FEW045 21/13 Q1014 RMK 1SC045 A2997

20221212_0roah_19f628869

62-8869 F-15J 204SQ R03

20221212_0roah_20f228055

22-8055 F-15DJ 204SQ R04

20221212_0roah_21ja002a

JA002A C560 ASP 普天間を偵察してたな

20221212_0roah_22ja206p

APJ281 RJFF-ROAH JA206P A320-251N

20221212_0roah_23t965615

95-5615 T-4 SWAF S09

20221212_0roah_24h60

????? UH-60J

20221212_0roah_25ja81rc

RAC872 ROKR-ROAH JA81RC DHC8-402QCC

20221212_0roah_26f428950

42-8950 F-15J 204SQ J01

20221212_0roah_27f228931

22-8931 F-15J 204SQ J02

20221212_0roah_28f15

遠くのファイターはブレブレ

20221212_0roah_29ja143a

ANA461 RJTT-ROAH JA143A A321-272N

20221212_0roah_30t4

20221212_0roah_31ja73nq

SKY512 RJTT-ROAH JA73NQ B737-81D

20221212_0roah_32f15

20221212_0roah_33ja73nq

JA73NQ

20221212_0roah_34r53

JG23053 LR-2 VXH

20221212_0roah_35ja14va

APJ481 RJGG-ROAH JA14VA A320-214

ROAH 120030Z 07014KT 9999 FEW045 21/14 Q1014 RMK 1SC045 A2995

20221212_0roah_36ja01xj

JAL901 RJTT-ROAH JA01XJ A350-941

20221212_0roah_37ja73nc

SKY511 RJTT-ROAH JA73NC B737-8FZ

20221212_0roah_38ja811x

SNJ21 RJTT-ROAH JA811X B737-86N

20221212_0roah_39ja73ng

SKY503 RJFF-ROAH JA73NG B737-86N

ここでしばらく、お土産調達、ブルー偵察に中座40分

ROAH 120100Z 05011KT 020V090 9999 SCT031 21/14 Q1015 RMK 3CU031 A2998 LGT TO MOD TURB OBS AT 0049Z 60NM NE ROAH BTN FL260 AND FL220 B738

20221212_0roah_40ja73nc

SKY502 ROAH-RJFF JA73NC B737-8FZ

20221212_0roah_41u123016

12-3016 U-125A R07

20221212_0roah_41xja16xj

JAL903 RJTT-ROAH JA16XJ A350-941

20221212_0roah_42ja811x

SNJ22 ROAH-RJTT JA811X B737-86N

20221212_0roah_43janh

JA36NH↑ EC135T2 ANH

ROAH 120130Z 03012KT 9999 FEW031 BKN037 21/14 Q1015 RMK 2CU031 6SC037 A3000

20221212_0roah_44ja8998

JA8229 C208 ASK

20221212_0roah_45ja01xj

JAL902 ROAH-RJTT JA01XJ A350-941

20221212_0roah_45xja830a

ANA463 RJTT-ROAH JA830A B787-9

20221212_0roah_46ja01xj

JAL902

20221212_0roah_47f15

帰って来たファイター 被写体はボケてます 後ピンやな

20221212_0roah_48b18102

CAL120 RCTP-ROAH B-18102 A321-271NX

20221212_0roah_49ja73ng

SKY514 ROAH-RJTT JA73NG B737-86N

20221212_0roah_50dcneu

西側エプロンにドルニエさん

20221212_0roah_51ja123e

JA123E PA-34-220T KNK いつもの捻り

20221212_0roah_52ja09rk

JTA557 ROAH-ROMY JA09RK B737-8Q3

20221212_0roah_53ja209p

APJ213 RJBB-ROAH JA209P A320-251N

20221212_0roah_54blcu

HKE820 VHHH-ROAH B-LCU A320-271N

20221212_0roah_55hl8351

KAL755 RKSI-ROAH HL8351 B737-8MAX

20221212_0roah_56ja808x

SNJ67 RJFM-ROAH JA808X B737-81D

20221212_0roah_57dcneu

DOD611 ROAH-SYE D-CNEU Do228-212NG

20221212_0roah_58ja67an

SNJ102 ROAH-RJFF JA67AN B737-881

ROAH 120200Z 02014KT 9999 SCT031 BKN044 21/14 Q1016 RMK 3CU031 6SC044 A3000

20221212_0roah_59dcneu

DOR611 関宿VOR/DMEまでIFRで、その後龍ヶ崎飛行場まで

20221212_0roah_60ja617a

ANA994 ROAH-RJTT JA617A B767-381ER

20221212_0roah_61ja03xj

JAL2081 RJOO-ROAH JA03XJ A350-941

20221212_0roah_62f428945

42-8945 F-15J 304SQ G23

この辺りで、ゲートへ

20221212_0roah_63ddep

ゲート内は、修旅で賑わっています。

20221212_0roah_64b18102

CAL121 ROAH-RCTP B-18102 A321-271NX

ROAH 120230Z 03014KT 9999 FEW031 BKN045 21/14 Q1015 RMK 1CU031 7SC045 A2999

20221212_0roah_65ja12rk

JTA36 ROAH-RJNK JA12RK B737-8Q3

探検隊員がいち早く小松へ

20221212_0roah_66ja83an

ANA304 ROAH-RJGG JA83AN  B737-881 我乗機

20221212_1ja83an_67b18209

SJX870 RCTP-ROAH B-58209 A321-252NX

ROAH 120300Z 02014KT 9999 SCT032 BKN050 21/14 Q1015 RMK 3CU032 7SC050 A2998

20221212_1ja83an_68blcu

HKE821 ROHA-VHHH B-LCU A320-271N

20221212_1ja83an_69ja05rk

後続のジンベエさん

20221212_1ja83an_70sand

エアボーン

ROAH 120400Z 02011KT 9999 FEW030 BKN050 21/14 Q1014 RMK 1CU030 7SC050 A2996

20221212_1ja83an_71ja59an

ANA329 RJGG-ROMY JA59AN B737-881

RJGG 080430Z 35019KT 9999 FEW030 SCT050 15/05 Q1020 NOSIG

20221212_1ja83an_72rjbd

南紀白浜空港

20221212_1ja83an_73mie

RNPアプローチ

20221212_1ja83an_74rjgg

アークでファイナルRW36 ランウェイが見えました。

20221212_1ja83an_75rjgg

ランディング

RJGG 080500Z 34021KT 9999 FEW025 13/07 Q1019 NOSIG

20221212_2rjgg_76ja83an

JA83AN お疲れ

20221212_2rjgg_77ja02jj

JJP587 RJGG-RJFF JA02JJ A320-232

ランウェイチェンジの模様

20221212_2rjgg_78ja73nx

SKY636 RJFK-RJGG JA73NX B737-86N

20221212_2rjgg_79ja05rk

JTA42 ROAH-RJGG JA05RK B737-8Q3

3泊4日の宮古島、那覇の旅でした。後は電車とバスを乗り継いで帰宅です。

 

 

| | コメント (0)

2022/12/17

宮古島紀行 中部国際空港・宮古空港 2022/12/9 fri

宮古島分屯基地開庁50周年記念行事への空旅は、セントレアから

RJGG 090100Z VRB02KT 9999 FEW020 10/05 Q1023 NOSIG

20221209_0rjgg_00centrair

セントレアもクリスマスモード

20221209_0rjgg_01x9vscc

国際線が復活していて、嬉しくなります。

20221209_0rjgg_02ja461a

ボンQさんは、バス搭乗なのね

20221209_0rjgg_03ja62an

ANA434 RJFF-RJGG JA62AN B737-881

20221209_0rjgg_04ja14an

エアドゥも久しぶりに見ます。

20221209_0rjgg_05ja182a

JA182A↓ B505 JCG

20221209_0rjgg_06ja05rj

IBX66 RJFO-RJGG JA05RJ CRJ-702

20221209_0rjgg_07x9vscc

シンガポール航空は長いドリーム

20221209_0rjgg_08cs

南側には、引退したチェックスターが2機

20221209_0rjgg_09gdhlw

DHK4 KCVG-RJGG G-DHLW B777-F6N

20221209_0rjgg_10ja701g

おや一番新しいチェックスターがお出まし

20221209_0rjgg_11ja701g

JA701G Cessna Citation Longitude

RJGG 090130Z 02004KT 340V070 9999 FEW020 11/05 Q1022 NOSIG

20221209_0rjgg_12ja701g

CS1 RJGG-RJNS JA701G CAB

20221209_0rjgg_13ja461a

ANA1813 RJGG-RJSN JA461A DHC8-402Q

20221209_0rjgg_14x9vscc

SIA671 RJGG-WSSS 9V-SCC B787-10

20221209_0rjgg_15x9vscc

20221209_0rjgg_16ja60an

ANA372 RJFU-RJGG JA60AN B737-881

20221209_0rjgg_17b18311

銀色のやつ

20221209_0rjgg_18b18311

CAL154 RCTP-RJGG B-18311 A330-302

20221209_0rjgg_19b18311

20221209_0rjgg_21centrair

乗機が到着しました。

20221209_0rjgg_22ja14an

ADO127 RJGG-RJCH JA14AN B737-781

RJGG 090200Z 29003KT 230V330 9999 FEW025 11/05 Q1022 NOSIG

20221209_0rjgg_20centrair

さてゲートイン

20221209_0rjgg_23ja07jj

JJP580 RJFF-RJGG JA07JJ A320-241

20221209_0rjgg_24rpc9916

PAL438 RPLL-RJGG RP-C9916 A321-231

20221209_0rjgg_25ja07mc

SFJ58 RJFF-RJGG JA07MC A320-214

20221209_1ja60an_26rjgg

ブロックアウトしました。

RJGG 090230Z 30005KT 9999 FEW025 11/06 Q1021 NOSIG

20221209_1ja60an_27rjgg

この機体 JA60AN は右と左でウイングレットの塗装が違います。

20221209_1ja60an_28mie

上昇中、三重県か良く見えます。明野は左側だった模様。

20221209_1ja60an_29kushimoto

潮岬

RJGG 090300Z 30003KT 260V330 9999 FEW025 12/06 Q1021 NOSIG

20221209_1ja60an_30ja60an

機内サービスは、毀滅の刃カップ

ROMY 090500Z 04015G25KT 360V070 5000 -SHRA BR SCT005 BKN009 BKN012 22/22 Q1007

20221209_1ja60an_31miyako

JAL便に追い抜かれました。

20221209_1ja60an_32miyako

高度を落として、間もなく雲中

20221209_1ja60an_33miyako

ようやく雲の下にだたのは、もう島の上

20221209_1ja60an_34miyako

20221209_2romy_35ja60an

雨の宮古空港到着

20221209_2romy_36ja60an

ANA329 RJGG-ROMY JA60AN B737-881

20221209_2romy_37ja82rc

20221209_2romy_40ja82rc

RAC834 ROIG-ROMY JA82RC DHC8-402QCC

20221209_2romy_38ja82rc

ROMY 090600Z 03020KT 9999 -SHRA SCT006 BKN009 BKN011 22/21 Q1006

20221209_2romy_39ja60an

乗機は、セントレアへ折り返し

20221209_2romy_41ja72an

ANA1725 ROAH-ROMY JA72AN B737-881

20221209_2romy_42ja82rc

20221209_2romy_43ja82rc

到着便が続きます。

20221209_2romy_44ja611a

ANA87 RJTT-ROMY JA611A B767-381ER

20221209_2romy_45ja82rc

RAC833 ROMY-ROIG JA82RC DHC8-402QCC

20221209_2romy_46ja611a

青組のB6も久しぶりに見ました。

20221209_2romy_47ja07rk

JTA563 ROAH-ROMY JA07RK B737-8Q3

20221209_2romy_48ja07rk

20221209_2romy_49ja72an

ANA1726 ROMY-ROAH JA72AN B737-881

ROMY 090700Z 05022G33KT 9999 -SHRA FEW008 BKN010 22/21 Q1006

20221209_2romy_50ja611a

B6まで見送ります。

20221209_2romy_51ja611a

20221209_2romy_52ja611a

ANA88 ROMY-RJTT JA611A B767-381ER

20221209_2romy_53miyako

今宵の宿までの途中、自衛隊のトラックが来ていました。

 

 

| | コメント (0)

2019/01/05

師走 中部国際空港 2018/12/7 fri

年越しをしてしまいましたが、昨年沖縄遠征時に中部で小一時間の記録。新機種を初見しました。

RJGG 070400Z 34012KT 9999 FEW020 SCT040 BKN/// 15/08 Q1015 BECMG 32024KT

20181207_rjgg_00rjgg

過ぎてしまえば、いつも何?のクリスマス

20181207_rjgg_01ra82054

VDA RA-82045 AN124-100

20181207_rjgg_02a6bli

20181207_rjgg_03a6bli

ETD888 ZBAA-RJGG A6-BLI B787-9

RJGG 070430Z 32017KT 9999 FEW020 SCT040 BKN/// 15/08 Q1015 BECMG 32028KT

20181207_rjgg_04ja26mc

SFJ33 RJGG-RJFR JA26MC A320-214

新しく赤黒のコントラスト

20181207_rjgg_05hl7714

たまに平行してプッシュすることも

20181207_rjgg_06b6820

CQH8601 ZSPD-RJGG B-6820 A320-214

何を間違えたか・・ ILSなのに高度処理できずにG/A

20181207_rjgg_07b50015

TTW207 RJGG-RCTP B-50015 A320-232

20181207_rjgg_08b6742

CCA405 ZSPD-RJGG B-6742 A321-232

何か違和感 五星紅旗がないじゃん、どいうこと

20181207_rjgg_09hl7714

KAL742 RJGG-RKSI HL7714 B777-2B5ER

20181207_rjgg_10ja73nx

SKY636 RJFK-RJGG JA73NX B737-86N

RJGG 070500Z 33021KT 9999 FEW020 SCT060 15/08 Q1015 NOSIG

20181207_rjgg_11ja63an_2

ANA364 RJSS-RJGG JA63AN B737-881

20181207_rjgg_12b6820

CQH8601 ZSPD-RJGG B-6820 A320-214 無事着陸です。

20181207_rjgg_13b50015

TTW207 RJGG-RCTP B-50015 A320-232

20181207_rjgg_14ja347j

JAL3106 RJCC-RJGG JA347J B737-846

20181207_rjgg_15hl8093

KAL753 RKPK-RJGG HL8093 A220-300

20181207_rjgg_16hl8093

エアバスなボンバル 機種名は、BD-500-1A11 CSeries CS300

20181207_rjgg_17b8387

CES530 RJGG-ZSPD B-8387 A320-214

20181207_rjgg_18hl8093

よりトビウオみたい

20181207_rjgg_19ja461a

ANA440 RJFF-RJGG JA461A DHC8-402Q

20181207_rjgg_20hxxti

20181207_rjgg_21hxxti

TAX638 VTBD-RJGG HS-XTI A330-343

20181207_rjgg_22hxxti

タイ国旗が目の下のペイントみたいね

20181207_rjgg_23hl8051

JJA1601 RJGG-RKSI HL8051 B737-8AS

20181207_rjgg_24blcl

HKE680 VHHH-RJGG B-LCL A320-271N

RJGG 070530Z 34025KT 9999 FEW020 SCT040 BKN/// 14/07 Q1016 NOSIG

20181207_rjgg_25ja06rk

JTA42 ROAH-RJGG JA06RK B737-8Q3

20181207_rjgg_26ja842a

ANA344 RJFM-RJGG JA842A DHC8-402Q

20181207_rjgg_27b8227

CES719 ZSPD-RJGG B-8227 A320-214

20181207_rjgg_28ja21jj

JJP587 RJGG-RJFF JA21JJ A320-232

この後、那覇へ向けて出発しました。

| | コメント (0) | トラックバック (0)

2018/12/11

FLIGHT OF DREAMS 中部国際空港 2018/12/7 fri

一年の遠征の最後を締めくくる美ら島エアーフェスタ。旅程は中部から飛びます。搭乗の時間まで、FLIGHT OF DREAMS を覗いてきました。

20181207_fod_00fod

名鉄を降りて、空港ビルを反対側に南に向かって歩いていきます。

20181207_fod_01fod

ほどなく、壁画がお出迎え。

20181207_fod_02n787ba

2F、3Fは SEATTLE TERACE

20181207_fod_03fod

1Fに降りて入場件を購入。エントリーゲートへ。ちなみに大人1200円。

20181207_fod_04n787ba

FLIGHT PARK 入ってすぐ

20181207_fod_05n787ba

台座の上に鎮座まします。

20181207_fod_06

ボーイングファクトリー 映像で工場を模したもの

20181207_fod_07n787ba

左エンジン辺りに紙ヒコーキとお絵かきヒコーキ

20181207_fod_08n787ba

見慣れてはいますが、不思議な形のシェブロン

20181207_fod_09n787ba

練炭には・・・ ならないか

20181207_fod_10n787ba

N787BA このレジは再利用はされないの?

20181207_fod_11n787ba

右エンジン側には・・

20181207_fod_12fod

エアラインスタジオ ちびっこのお仕事体験

20181207_fod_13n787ba

機体脇の階段を昇ると

20181207_fod_14n787ba

コクピット

20181207_fod_15n787ba

20181207_fod_16n787ba

結構広いですね。ここはアクリルパネルで隔てていて、見るだけ。

20181207_fod_17fod

20181207_fod_18fod

当日でも抽選で体験できるかも

20181207_fod_19fod

出場時にブラックライトスタンプを押しておけば、再入場は自由。

20181207_fod_20fod

エントランスにはボーイングショップ

20181207_fod_21fod

再びパークに戻って、プロジェクトマッピングを眺めます。

20181207_fod_22n787ba

ここは4F 整理券で入場できます。

20181207_fod_23n787ba

プロジェクトマッピングは30分毎

20181207_fod_24n787ba

1時間ほどで、お楽しみはお終い。

20181207_fod_25fod

空港ビルに戻ります。

| | コメント (0) | トラックバック (0)

2018/05/24

経由 中部国際空港 2018/5/15 tue

遠征の中継地としてよく利用するセントレア。今回の利用便は夕方なので、まったりと記録することにしました。

20180515_rjgg_00n718ba

名鉄の車内見られたドリームライナーは、到着したばかり。

20180515_rjgg_01n743ck

最近話題のカリッタ

20180515_rjgg_02n743ck

CKS258 RJGG-PANC N743CK B747-446BCF

RJGG 150200Z 31004KT 9999 FEW020 BKN/// 21/15 Q1014 BECMG 24006KT

20180515_rjgg_03ja09an

ADO127 RJGG-RJCH JA09AN B737-781

20180515_rjgg_04hstkb

THA645 RJGG-VTBS HS-TKB B777-3D7

20180515_rjgg_06hl8059

AAR121 RJGG-RKSI HL8059 A321-231

20180515_rjgg_07b18663

CAL154 RCTP-RJGG B-18663 B737-8AL

20180515_rjgg_08n718ba

搭載の準備が始まりました。

20180515_rjgg_09ja463a

ANA332 RJFT-RJGG JA463A DHC8-402Q

20180515_rjgg_10ja09an

ADO127 RJGG-RJCH JA09AN B737-781

20180515_rjgg_11ja07mc

SFJ32 RJFF-RJGG JA07MC A320-214

20180515_rjgg_12ja73nq

SKY761 RJCC-RJGG JA73NQ B737-81D

20180515_rjgg_13ja09rj

IBX43 RJGG-RJSS JA09RJ CRJ-702ER

20180515_rjgg_14ja345j

JAL3083 RJAA-RJGG JA345J B737-846

20180515_rjgg_15n77295

UAL136 RJGG-PGUM N77295 B737-824

20180515_rjgg_16b18662

CAL7314 RCMQ-RJGG B-18662 B737-8AL

20180515_rjgg_17ja01dj

WAJ2 RJCC-RJGG JA01DJ A320-216

20180515_rjgg_18ja80an

ANA434 RJFF-RJGG JA80AN B737-881

20180515_rjgg_19ja338j

JAL3105 RJGG-RJCC  JA338J B737-846

RJGG 150230Z 31004KT 9999 FEW020 BKN/// 22/16 Q1014 BECMG 24006KT

20180515_rjgg_20ja841a

ANA437 RJGG-RJFF JA841A DHC8-402Q

20180515_rjgg_21n718ba

積荷は前部胴体なのかな? 先頭は翼基部か

20180515_rjgg_22ja58an

ANA579 RJGG-ROIG JA58AN B737-881

20180515_rjgg_23ja05jj

JJP582 RJFF-RJGG JA05JJ A320-232

20180515_rjgg_24ja15jj

JJP183 RJGG-RJCC JA15JJ A320-232

20180515_rjgg_25ja14jj

JJP383 ここでRWチェンジの模様

20180515_rjgg_26ja463a

ANA363 RJGG-RJSS JA463A DHC8-402Q

RJGG 150300Z 29004KT 9999 FEW020 BKN/// 23/16 Q1014 BECMG 24006KT

20180515_rjgg_27ja702a

ANA9242 RJGG-RJGG JA702A B777-281

20180515_rjgg_28ja14jj

JJP383 RJGG-ROAH JA14JJ A320-232

20180515_rjgg_29ja17an

ANA707 RJGG-RJCC JA17AN B737-781

20180515_rjgg_30ja702a

せっかくうまく収まったのに・・・ ワイヤーアタック

20180515_rjgg_31ja702a

ライトベース

20180515_rjgg_32ja02an

ANA438 RJFF-RJGG JA02AN B737-781

20180515_rjgg_33hl7550

KAL741 RKSI-RJGG HL7550 A330-322

20180515_rjgg_34b18663

CAL155 RJGG-RCTP B-18663 B737-8AL

20180515_rjgg_35ja07mc

SFJ33 RJGG-RJFF JA07MC A320-214

20180515_rjgg_36ja702a

タッチダウン

20180515_rjgg_37ja702a

出力を上げて、リフトオフ

RJGG 150330Z 28003KT 240V320 9999 FEW020 BKN/// 24/17 Q1013 BECMG 24006KT

20180515_rjgg_38ja85an

ANA704 RJCC-RJGG JA85AN B737-881

20180515_rjgg_39b8222

CSE529 ZSPD-RJGG B-8222 A320-232

20180515_rjgg_40ja73nq

SKY553 RJGG-ROAH JA73NQ B737-81D

20180515_rjgg_41ja737r

SKY552 ROAH-RJGG JA737R B737-86N

20180515_rjgg_42ja857a

ANA362 RJSS-RJGG JA857A DHC8-402Q

20180515_rjgg_43b18662

CAL7315 RJGG-RCMQ B-18662 B737-8AL

20180515_rjgg_44ja702a

ターニング・ファイナル

20180515_rjgg_45ja702a

アップウインドからライトハンド・ダウンウィンド

RJGG 150400Z 21004KT 9999 FEW020 BKN/// 23/17 Q1013 NOSIG

20180515_rjgg_46ja04an

ANA364 RJSS-RJGG JA04AN B737-781

20180515_rjgg_47ja02an

ANA325 RJGG-RJEC JA02AN B737-781

20180515_rjgg_48b6742

CCA405 ZSPD-RJGG B-6742 A321-232

20180515_rjgg_49ja702a

RJGG 150430Z 20006KT 9999 FEW020 23/19 Q1013 NOSIG

20180515_rjgg_50n718ba

タラップが外れました。

20180515_rjgg_51ja85an

ANA711 RJGG-RJCC JA85AN B737-881

20180515_rjgg_52hl8063

JJA1602 RKSI-RJGG HL8063 B737-8AS

20180515_rjgg_53a6bls

ETD888 ZBAA-RJGG A6-BLS B787-9

20180515_rjgg_54b8222

CES530 RJGG-ZSPD B-8222 A320-232

20180515_rjgg_55b5858

CES5073 ZSYT-RJGG B-5858 B737-89P

20180515_rjgg_56ja84an

ANA706 RJCC-RJGG JA84AN B737-881

20180515_rjgg_57ja737r

SKY765 RJGG-RJCC JA737R B737-86N

20180515_rjgg_58b50008

TTW207 RJGG-RCTP B-50008 A320-232

20180515_rjgg_59ja857a

ANA333 RJGG-RJFT JA857A DHC8-402Q

20180515_rjgg_60hl7550

KAL742 RJGG-RKSI HL7550 A330-322

20180515_rjgg_61n718ba

ドリームリフター様のお通りだい

20180515_rjgg_62n718ba

20180515_rjgg_63ja845a

ANA344 RJFM-RJGG JA845A DHC8-402Q

20180515_rjgg_64n718ba

20180515_rjgg_65ja03rk

JTA42 ROAH-RJGG JA03RK B737-8Q3

20180515_rjgg_66n718ba

GTI4131 RJGG-PANC N718BA B747-4H6LCF

RJGG 150500Z 17011KT 9999 FEW020 24/18 Q1013 NOSIG

20180515_rjgg_67n718ba

いってらっしー

20180515_rjgg_68ja846a

ANA354 RJFK-RJGG JA846A DHC8-402Q

20180515_rjgg_69ja04an

ANA875 RJGG-VHHH JA04AN B737-781

20180515_rjgg_70b6742

CCA406 RJGG-ZSPD B-6742 A321-232

20180515_rjgg_71b8590

CQH8601 ZSPD-RJGG B-8590 A320-214

20180515_rjgg_72hl7707

KAL753 RKPK-RJGG HL7707 B737-9B5

20180515_rjgg_73ja702a

ANA9142 RJGG-RJTT JA702A B777-281

訓練を終えて羽田にお帰りです。

20180515_rjgg_74ja811x

SNJ70 ROAH-RJGG JA811X B737-86N

RJGG 150530Z 16008KT 9999 FEW020 25/18 Q1013 NOSIG

20180515_rjgg_75ja09an

ADO128 RJCH-RJGG JA09AN B737-781

20180515_rjgg_76hl8063

JJA1601 RJGG-RKSI HL8063 B737-8AS

20180515_rjgg_77ja03rk

20180515_rjgg_78ja03rk

JTA47 RJGG-ROAH JA03RK B737-8Q3

20180515_rjgg_79ja845a

ANA1839 RJGG-RJSK JA845A DHC8-402Q

20180515_rjgg_80bhlq

CPA536 VHHH-RJGG B-HLQ A330-343

20180515_rjgg_81ja84an

ANA340 RJGG-RJAA JA84AN B737-881

20180515_rjgg_82b5858

CSE5074 RJGG-ZSYT B-5858 B737-89P

RJGG 150600Z 17009KT 9999 FEW020 24/18 Q1012 NOSIG

20180515_rjgg_83ja345j

JAL3084 RJGG-RJAA JA345J B737-846

20180515_rjgg_84b1865

CSE719 ZSPD-RJGG B-1865 A320-214

20180515_rjgg_85ja811x

SNJ69 RJGG-ROAH JA811X B737-86N

20180515_rjgg_86ja09an

ADO135 RJGG-RJCC JA09AN B737-781

そろそろ暑さにグロッキーになってきたので、引き上げて搭乗に向かいます。

| | コメント (0) | トラックバック (0)

2017/12/16

出立 中部国際空港 2017/12/8 fri

名古屋飛行場から中部国際空港へ。

20171208_rjgg_00airasia

今年もエア・アジアのツリーがお出迎え。ようやく国内定期便も就航して、今後も動向を注視したい存在です。

RJGG 080500Z 05003KT 360V100 9999 SCT018 BKN070 07/04 Q1008 NOSIG

20171208_rjgg_01b50008

TTW207 RJGG-RCTP B-50008 A320-232

20171208_rjgg_02rjgg

デッキの案内板も新しくなっていました。これはボーイング787の解説。

20171208_rjgg_03b6742

CCA406 RJGG-ZSPD B-6742 A321-232

20171208_rjgg_04blca

HEX1584 VHHH-RJGG B-LCA A320-232

20171208_rjgg_05za001

ZA001 は、まだこの位置。まもなく移動の模様です。

20171208_rjgg_06ja809x

SNJ70 ROAH-RJGG JA809X B737-86N

20171208_rjgg_07a6bli

ETD888 ZBAA-RJGG A6-BLI B787-9

20171208_rjgg_08a6bli

SKYTRACKのFIVESTARマークが目を引きます

20171208_rjgg_09hl7705

KAL753 RKPK-RJGG HL7705 B737-9B5

20171208_rjgg_10ja13rj

最近はすっかり利用しない橙

20171208_rjgg_11ja13rj

IBX50 RJFF-RJGG JA13RJ CRJ-702ER

RJGG 080530Z 06004KT 040V100 9999 FEW018 BKN090 08/04 Q1008 NOSIG

20171208_rjgg_12ja21jj

JJP183 RJGG-RJCC JA21JJ A320-232

20171208_rjgg_13hl8087

JJA1602 RKSI-RJGG HL8087 B737-8AS

20171208_rjgg_14ja841a

ANA1825 RJGG-RJOM JA841A DHC8-402Q

20171208_rjgg_15b1609

CES719 ZSPD-RJGG B-1609 A320-214

20171208_rjgg_16ja356k

ANA340 RJGG-RJAA JA356K B737-54K

20171208_rjgg_17ja333j

JAL3084 RJGG-RJAA JA333J B737-846

20171208_rjgg_18ja05rk

JTA47 RJGG-ROAH JA05RK B737-8Q3

沖縄で待ってるよ・・・

20171208_rjgg_19dep

さて、そろそろゲートへ 本日の乗便は、SKY557

RJGG 080600Z 11003KT 070V140 9999 FEW018 BKN090 08/05 Q1007 BECMG 30005KT

20171208_rjgg_20ja15an

ADO135 RJGG-RJCC JA15AN B737-781

機内から夕焼けが幻想的に

20171208_rjgg_21sky577

RW36から・・

20171208_rjgg_22sky577

夕陽を追いかけますが、追いつけません。そりゃ、そうだ。

20171208_rjgg_23skynes

スカイマークとネスカフェコラボのサービス コーヒーとスカイマークキットカット

20171208_rjgg_24kadena

すっかり陽が落ちて、ようやく沖縄本島です。真ん中の暗い所が嘉手納飛行場。

20171208_rjgg_25sky577

ファイナル

20171208_rjgg_26ja73ny

SKY557 RJGG-ROAH JA73NY B737-86N

初スカイマークでした。キャンペーンで無料でコーヒーがいただけたので、大手とほとんど差が無いと感じました。機体がNGなので、室内照明がLEDで、少し眩しかったかな。この後は宿に入って、那覇の夜に繰り出します。

ROAH 080800Z 36022KT 9999 BKN040 BKN100 17/07 Q1017 RMK 5SC040 7AC100 A3005

| | コメント (0) | トラックバック (0)

2016/12/30

帰還行 那覇-中部 2016/12/12 mon

瀬長島から空港に移動して、出発まで少し時間があったので、国際線ターミナルを覗いてみました。

20161212_roah_a00flag

沖縄県は、日本国です。

20161212_roah_a01int

急激に利用客が伸びている国際線は、結構忙しい。

20161212_roah_a02int

ゾウの檻の国際線ターミナル送迎デッキ 南側方面

ROAH 120200Z 12010KT 060V150 9999 FEW040 SCT070 25/13 Q1018 RMK 1CU040 3AC070 A3008

20161212_roah_a03int

国際線ターミナル送迎デッキ 北側方面

20161212_roah_a04todai

北側には先原埼灯台跡が臨める

20161212_roah_a05ja73np

SKY512 ROAH-RJTT JA73NP B737-8HX

20161212_roah_a06ja8196

ANA1723 ROAH-ROMY JA8196 B737-54K

20161212_roah_a07ja711a

南側でRW36着陸機が辛うじて見える

20161212_roah_a08ja711a

ANA467 RJTT-ROAH JA711A B777-281

20161212_roah_a09ja810x

SNJ45 ROAH-ROIG JA810X B737-86N

20161212_roah_a10ja8994

JTA607 ROAH-ROMY JA8994 B737-446

20161212_roah_a11tree

ドメスにもどって青組のクリスマスツリー これからチェックイン。

20161212_roah_a12int

国際線ターミナルは、国内線ターミナルとの間で増築中

20161212_roah_a13ja812x

本日の乗機はくまモン

ROAH 120300Z 07010KT 040V110 9999 FEW040 25/14 Q1017 RMK 2CU040 A3006

20161212_roah_a14ja812x

着席すると隣に先程のスタアラ

20161212_roah_a15ws

風は、二アクロスかな・・

20161212_roah_a16ja73na

SKY504 ROAH-RJFF JA73NA B737-8HX

小生の先行機

20161212_roah_a17ja804p

APJ215 RJBB-ROAH JA804P A320-214

20161212_roah_a18ja812x

いよいよRW36にラインナップ

ROAH 120330Z 08008KT 050V140 9999 VCSH FEW040 BKN050 24/15 Q1017 RMK 2CU040 5SC050 A3005

20161212_rjgg_a20naha

エアボーンしてJAL側ピア

20161212_rjgg_a21naha

ANA側ピア

20161212_rjgg_a22iejima

伊江島 途中嘉手納は視認できましたが、カメラで捕らえられませんでした。

20161212_rjgg_a23iejima

海兵隊がいつも訓練に使っている一番西側の施設

20161212_rjgg_a24iejima

ただ通路となっている(一般人も通行できる)補助滑走路(左側)と伊江島空港

20161212_rjgg_a25iejima

海兵隊施設をよく見ると、左のヘリパッドにオスプレイが駐機しています。

20161212_rjgg_a26ja812x

乗機は、ひたすら洋上を北東進

20161212_rjgg_a27ja812x

ソラシドのしゃれた紙コップと旅の種

20161212_rjgg_a28ja

トラフィック監視をしていて、なんとか見られる一枚 JALのB6です。

20161212_rjgg_a29owase

串本からヒートドライ 尾鷲の町並みですかな

RJGG 120500Z 34007KT 9999 FEW030 BKN/// 09/M03 Q1025 NOSIG

20161212_rjgg_a30ise

目を凝らして探した 伊勢志摩サミットで使用されたヘリポート跡(と、思う)

20161212_rjgg_a31rjgg

伊良湖岬からは富士山が遠望できました。

20161212_rjgg_a32rjgg

さあ、セントレアRW36のファイナルです。

20161212_rjgg_a33rjgg

帰ってきたよドリームライナー

20161212_rjgg_a34hl7726

KAL753 RKPK-RJGG HL7726 B737-9B5

20161212_rjgg_a35ja812x

JALの隣にスポットイン

20161212_rjgg_a36ja812x

SNJ70 ROAH-RJGG JA812X B737-86N

20161212_rjgg_a37tree

セントレアには、エアアジアのクリスマスツリー

RJGG 120600Z 35008KT 9999 FEW030 BKN/// 09/M02 Q1025 NOSIG

20161212_rjgg_a38ja812x

SNJ69 RJGG-ROAH JA812X B737-86N

20161212_rjgg_a39ja812x

くまモンを見送って、後は陸路での帰路。自宅までは、まだまだ半日掛かります。でも、また行っちゃうんだよなー 沖縄。

| | コメント (0) | トラックバック (0)

2016/12/13

めんそーれ那覇 那覇空港 2016/12/9 fri

一年の締めくくりは、那覇航空祭。年間計画の時点で日程は押さえて、いろいろ手配した。その後、2日間開催だとか・・ ブルー参加だとか プロジェクトなんとかやらとか・・ どんどんイベントが増えてくる期待度アップの日々でした。(本心は、昔ながらのてーげーのゆったりを期待していたのですが・・・)

RJGG 090300Z 04003KT 350V080 9999 FEW030 SCT050 12/03 Q1012 NOSIG

20161209_roah_00ja01jj

空路、出発はセントレア いつもお世話になってる橙。

20161209_roah_01ja01jj

2時間強のフライトで、ランウェイ36のファイナルへ・・

20161209_roah_02ja01jj

パット見、ご一行様は、まだ到着していない模様

ROAH 090600Z 03011KT 360V060 9999 FEW045 BKN/// 24/13 Q1014

20161209_roah_03m5091

弁当を仕込んで、デッキでノンビリ腹ごしらえしながら眺めているのですが、ガンガンP3が帰ってくる。

20161209_roah_04kc

15時過ぎにKCさん到着。名古屋から乗ってきたいなぁ・・・

20161209_roah_05f2

すぐ後を黒豹さんが着陸。だんだん航空祭モードに入っていきます。

ROAH 090630Z 04011KT 360V070 9999 FEW045 BKN/// 24/13 Q1014

20161209_roah_06bi

夕暮が近づく16時近く キャー来た・・ イニシャルから4機エシュロン

20161209_roah_07bi

ブゥレイク

20161209_roah_08bi

すぐ後ろを残りの3機がついてきてます。7番機は、写真撮影中かな・・

20161209_roah_09bi

こちらも、ブレイク、ダウンウインドに入ります。

20161209_roah_10bi

先行して降りたP3に続いて1番機

20161209_roah_11bi

と、思いきや管制から後続の5番機編隊にG/A えー、どして?

20161209_roah_12bi

降りた4機は、そろってファイターエプロンへ

ROAH 090700Z 04011KT 360V070 9999 FEW045 BKN/// 24/13 Q1014 RMK 1SC045 A2997

20161209_roah_13bi

G/Aの後、スカイ、ソラシ、オレンジ、太陽をこなして、5番機編隊も無事着陸。

20161209_roah_14bi

そろってファイターエリアにタクシー。さて、役者がそろいましたかな。もう少し民航機を撮りながら小松からのJTAを待って、前夜祭に突入です。

| | コメント (0) | トラックバック (0)

2015/11/23

帰路JJP580【福岡-中部】 福岡・中部 2015/10/26 mon

築城帰り、福岡空港からはジェットスター580便で中部経由で帰還します。デッキで一時撮影した後、いよいよ搭乗からの空撮をまとめて。

RJFF 260000Z VRB01KT CAVOK 17/07 Q1022 RMK A3018

20151026_jjp580_00rjff

第一出発から搭乗待合室へ

20151026_jjp580_01ja06fj

搭乗は徒歩移動で平地から・・ 途中駐機している機体を眺められるのも福岡の楽しみ。

20151026_jjp580_02ja15jj

JJP580 RJFF-RJGG JA15JJ A320-232

20151026_jjp580_03ja773j

JAL307 RJTT-RJFF JA773J B777-246

徒歩搭乗の合間に、一枚

20151026_jjp580_04rjff

プッシュバックしてRW18へ向かいます

20151026_jjp580_05n39297

UAL165 PGUM-RJFF N39297 B737-824

20151026_jjp580_06x9vjsv

JSA510 RJFF-WSSS 9V-JSV A320-232

ジェットスターからジェットスター。こちらはジャパンで、向こうはアジア。

20151026_jjp580_07ja09rj

IBX21 RJFF-RJFM JA09RJ CRJ-702ER

20151026_jjp580_08rjff

10:25エアボーン

20151026_jjp580_09rjff

鳥栖付近

20151026_jjp580_10sangunzan

ここからかなり補正をかけて、存在だけでもはっきりさせています。

航空局三郡山ARSR

20151026_jjp580_11rjof

防府飛行場

20151026_jjp580_12rjoi

岩国飛行場

20151026_jjp580_13rjom

松山空港

20151026_jjp580_14rjot

高松空港

20151026_jjp580_15rjos

徳島飛行場

20151026_jjp580_16rjop

小松島飛行場

20151026_jjp580_17rjbe

関西国際空港と神戸空港

20151026_jjp580_18rjbb

関空の向こうに明石大橋

20151026_jjp580_19kasatoriyama

航空自衛隊笠取山レーダー

20151026_jjp580_20isewan

旧海軍香良洲飛行場跡と伊勢湾へリポート

20151026_jjp580_21hs

THA645 RJGG-VTBS HS- B777-3D7

中部から上がったタイが上昇していきました。

20151026_jjp580_22rjgg

いよいよ中部のベースに入りました

20151026_jjp580_23boe

沖合いを787用部品運搬船が向かってきます。

20151026_jjp580_24rjgg

RW36ランディング

20151026_jjp580_25ja845a

ANA1825 RJGG-RJOM JA845A DHC8-402Q

隣からポンバルが出発していきます。

RJGG 260230Z 29005KT 260V330 9999 FEW030 SCT/// 16/03 Q1022 NOSIG

空の旅は、これにて終わり。後は陸路でマイホームまで、まだまだ。

| | コメント (0) | トラックバック (0)

2015/11/13

福岡行き 中部国際空港 2015/10/23 fri

さてー、すっかり小生の遠征拠点となったセントレア。先日の築城行きの時に垣間見た飛行機を・・

20151023_rjgg_00hstkk

THA645 RJGG-VTBS HS-TKK B777-3ALER

20151023_rjgg_01ra

セントレア公式ツイで存在は承知していたが、アントノフが2機

20151023_rjgg_02x9vstt

SIA671 RJGG-WSSS 9V-STT A330-343

20151023_rjgg_03ja39ge

JA39GE AW109 地元警察かと思ったら鳥取県警察でした。

20151023_rjgg_04ra82078

RA-82078 An124-100 VDA

20151023_rjgg_05ra82045

RA-82045 An124-100 VDA

20151023_rjgg_06n787ba

片隅に置物の787 exN787BA

20151023_rjgg_07ja06rj

IBX43 RJGG-RJSS JA06RJ CRJ-702ER

20151023_rjgg_08ja03jj

JJP580 RJFF-RJGG JA03JJ A320-232

搭乗予定機が着陸したので、デッキを離脱

20151023_rjgg_09gate

ゲートを通過して搭乗待合室へ

20151023_rjgg_10ja002g

JA002G G-IV CAB

待合室の青ガラス越しで・・

20151023_rjgg_11ja03jj

機内からアントノフ

20151023_rjgg_12ja03jj

RW36

20151023_rjgg_13n787ba

造成中の小型ジェット用エプロンの向こうに787

20151023_rjgg_14ra82045

RA-82045

20151023_rjgg_15ra82078

RA-82078

20151023_rjgg_16ja006g

JA006G GLEX CAB

エアボーンして航空局飛行検査センターを覗くと・・ セスナがいるな

20151023_rjgg_17ja03jj

JJP581 RJGG-RJFF JA03JJ A320-232

福岡へ飛びたちました。

| | コメント (0) | トラックバック (0)

その他のカテゴリー

BI Boading record aircraft Boading record ship FlightTracking lighthouse NAVAIDS NAVY RJNT LOG SKY MASSAGE US NAVY USMC うみ おか そら てつ アクシデント エアロック チーム室屋 ヘリポート 三沢飛行場 上五島空港 下地島空港 下総飛行場 与論空港 与那国空港 中標津空港 中部国際空港 久米島空港 五島福江空港 仙台空港 伊江島空港 但馬空港 佐賀空港 入間飛行場 八尾空港 八戸飛行場 出雲空港 函館空港 利尻空港 北九州空港 北大東空港 十勝飛行場 千歳飛行場 南大東空港 博物館 厚木飛行場 名古屋飛行場 喜界空港 嘉手納飛行場 場外 壱岐空港 多良間空港 大分空港 大村飛行場 大湊飛行場 大阪国際空港 大館能代空港 天草空港 奄美空港 奥尻空港 宇部山口空港 宇都宮飛行場 宮古空港 宮崎空港 富山空港 対馬空港 小松島飛行場 小松飛行場 屋久島空港 山形空港 岐阜飛行場 岡南飛行場 岡山空港 岩国飛行場 帯広空港 広島空港 広島西飛行場 庄内空港 徳之島空港 徳島飛行場 慶良間空港 成田国際空港 新島空港 新潟空港 新田原飛行場 旭川空港 旭川飛行場 明野飛行場 普天間飛行場 木更津飛行場 札幌飛行場 東京国際空港 松山空港 松島飛行場 松本空港 枕崎飛行場 横田飛行場 沖永良部空港 波照間空港 浜松飛行場 海上保安庁 海上自衛隊 海外 熊本空港 百里飛行場 相馬原飛行場 石垣空港 石見空港 礼文空港 神戸空港 神津島空港 福井空港 福岡空港 福島空港 秋田空港 稚内空港 種子島空港 空撮 立川飛行場 竜ヶ崎飛行場 築城飛行場 粟国空港 美保飛行場 能登空港 舞鶴飛行場 航空自衛隊 芦屋飛行場 花巻空港 調布飛行場 警務消防 那覇空港 釧路空港 長崎空港 関西国際空港 陸上自衛隊 隠岐空港 霞ヶ浦飛行場 霞目飛行場 青森空港 静岡空港 静浜飛行場 飛行場跡 飛行船 鹿児島空港 鹿屋飛行場